createdAt,value
2023-04-11T00:00:25.926Z,100687.03
2023-04-11T00:02:52.563Z,100674.44
2023-04-11T00:05:20.672Z,100674.56
2023-04-11T00:07:47.160Z,100677.41
2023-04-11T00:10:13.676Z,100674.22
2023-04-11T00:12:40.148Z,100678.88
2023-04-11T00:15:07.448Z,100673.69
2023-04-11T00:17:34.010Z,100672.03
2023-04-11T00:20:00.551Z,100672.53
2023-04-11T00:22:28.582Z,100673.03
2023-04-11T00:24:55.142Z,100677.97
2023-04-11T00:27:22.095Z,100669.88
2023-04-11T00:29:48.658Z,100676.63
2023-04-11T00:32:15.130Z,100670.88
2023-04-11T00:34:41.589Z,100670.19
2023-04-11T00:37:08.082Z,100676.16
2023-04-11T00:39:35.898Z,100687.47
2023-04-11T00:42:06.616Z,100676.16
2023-04-11T00:44:33.343Z,100678.66
2023-04-11T00:47:01.899Z,100684.72
2023-04-11T00:49:29.411Z,100671.66
2023-04-11T00:51:56.147Z,100678.91
2023-04-11T00:54:22.702Z,100672.56
2023-04-11T00:56:51.191Z,100683.69
2023-04-11T00:59:17.756Z,100679.69
2023-04-11T01:01:44.395Z,100681.50
2023-04-11T01:04:11.031Z,100677.88
2023-04-11T01:06:37.948Z,100677.09
2023-04-11T01:09:04.847Z,100678.00
2023-04-11T01:11:32.015Z,100669.59
2023-04-11T01:14:00.178Z,100674.34
2023-04-11T01:16:26.931Z,100677.84
2023-04-11T01:18:53.674Z,100679.00
2023-04-11T01:21:21.304Z,100675.19
2023-04-11T01:23:49.184Z,100675.75
2023-04-11T01:26:15.765Z,100665.47
2023-04-11T01:28:42.213Z,100657.78
2023-04-11T01:31:08.806Z,100667.59
2023-04-11T01:33:35.503Z,100673.59
2023-04-11T01:36:02.250Z,100673.63
2023-04-11T01:38:28.824Z,100686.97
2023-04-11T01:40:58.082Z,100688.91
2023-04-11T01:43:24.688Z,100686.53
2023-04-11T01:45:51.222Z,100690.88
2023-04-11T01:48:18.051Z,100690.47
2023-04-11T01:50:44.570Z,100693.00
2023-04-11T01:53:11.086Z,100696.56
2023-04-11T01:55:37.578Z,100693.78
2023-04-11T01:58:05.403Z,100694.22
2023-04-11T02:00:31.920Z,100698.34
2023-04-11T02:02:58.557Z,100695.63
2023-04-11T02:05:25.227Z,100705.00
2023-04-11T02:07:51.770Z,100705.56
2023-04-11T02:10:18.442Z,100704.31
2023-04-11T02:12:44.952Z,100706.00
2023-04-11T02:15:12.983Z,100714.94
2023-04-11T02:17:39.558Z,100712.81
2023-04-11T02:20:07.825Z,100721.38
2023-04-11T02:22:34.344Z,100716.06
2023-04-11T02:25:00.804Z,100723.72
2023-04-11T02:27:27.359Z,100725.31
2023-04-11T02:29:53.820Z,100725.91
2023-04-11T02:32:21.711Z,100721.78
2023-04-11T02:34:48.258Z,100724.16
2023-04-11T02:37:14.780Z,100724.31
2023-04-11T02:39:41.271Z,100735.03
2023-04-11T02:42:07.768Z,100737.69
2023-04-11T02:44:34.232Z,100740.75
2023-04-11T02:47:00.776Z,100732.59
2023-04-11T02:49:28.641Z,100738.34
2023-04-11T02:51:55.140Z,100740.75
2023-04-11T02:54:21.572Z,100740.53
2023-04-11T02:56:48.168Z,100732.88
2023-04-11T02:59:14.670Z,100736.84
2023-04-11T03:01:41.327Z,100735.03
2023-04-11T03:04:07.916Z,100736.44
2023-04-11T03:06:35.763Z,100738.41
2023-04-11T03:09:02.252Z,100741.31
2023-04-11T03:11:28.717Z,100754.09
2023-04-11T03:13:55.162Z,100738.72
2023-04-11T03:16:21.686Z,100736.75
2023-04-11T03:18:48.182Z,100748.66
2023-04-11T03:21:14.672Z,100751.16
2023-04-11T03:23:42.528Z,100755.22
2023-04-11T03:26:09.273Z,100760.22
2023-04-11T03:28:35.764Z,100754.09
2023-04-11T03:31:02.406Z,100766.50
2023-04-11T03:33:28.960Z,100763.34
2023-04-11T03:35:55.481Z,100779.19
2023-04-11T03:38:22.080Z,100778.03
2023-04-11T03:40:49.953Z,100774.63
2023-04-11T03:43:16.686Z,100778.34
2023-04-11T03:45:43.254Z,100785.06
2023-04-11T03:48:09.768Z,100792.34
2023-04-11T03:50:36.421Z,100786.81
2023-04-11T03:53:03.071Z,100789.75
2023-04-11T03:55:29.632Z,100792.25
2023-04-11T03:57:57.588Z,100785.84
2023-04-11T04:00:24.300Z,100792.03
2023-04-11T04:02:51.009Z,100796.25
2023-04-11T04:05:17.604Z,100794.19
2023-04-11T04:07:44.088Z,100788.41
2023-04-11T04:10:10.574Z,100796.84
2023-04-11T04:12:37.093Z,100789.09
2023-04-11T04:15:06.012Z,100788.09
2023-04-11T04:17:32.600Z,100791.09
2023-04-11T04:19:59.217Z,100796.81
2023-04-11T04:22:25.729Z,100788.53
2023-04-11T04:24:52.205Z,100803.78
2023-04-11T04:27:18.729Z,100805.88
2023-04-11T04:29:45.290Z,100800.66
2023-04-11T04:32:14.501Z,100808.38
2023-04-11T04:34:42.403Z,100801.78
2023-04-11T04:37:08.912Z,100811.25
2023-04-11T04:39:35.417Z,100814.94
2023-04-11T04:42:01.902Z,100822.88
2023-04-11T04:44:28.361Z,100826.78
2023-04-11T04:46:55.896Z,100836.09
2023-04-11T04:49:23.770Z,100839.72
2023-04-11T04:51:50.411Z,100830.00
2023-04-11T04:54:16.918Z,100843.13
2023-04-11T04:56:43.392Z,100850.81
2023-04-11T04:59:09.850Z,100846.06
2023-04-11T05:01:36.346Z,100854.66
2023-04-11T05:04:03.311Z,100853.75
2023-04-11T05:06:32.126Z,100857.09
2023-04-11T05:09:00.358Z,100860.75
2023-04-11T05:11:27.203Z,100862.28
2023-04-11T05:13:54.591Z,100866.59
2023-04-11T05:16:21.303Z,100861.31
2023-04-11T05:18:47.853Z,100872.88
2023-04-11T05:21:14.923Z,100868.84
2023-04-11T05:23:42.893Z,100871.22
2023-04-11T05:26:09.800Z,100874.00
2023-04-11T05:28:36.673Z,100873.16
2023-04-11T05:31:03.426Z,100875.94
2023-04-11T05:33:29.946Z,100878.31
2023-04-11T05:35:56.628Z,100886.25
2023-04-11T05:38:23.121Z,100890.19
2023-04-11T05:40:50.931Z,100894.34
2023-04-11T05:43:17.391Z,100898.13
2023-04-11T05:45:44.441Z,100902.84
2023-04-11T05:48:10.944Z,100904.78
2023-04-11T05:50:37.408Z,100910.38
2023-04-11T05:53:03.938Z,100912.19
2023-04-11T05:55:30.454Z,100924.59
2023-04-11T05:57:58.286Z,100913.28
2023-04-11T06:00:24.884Z,100923.75
2023-04-11T06:02:51.805Z,100927.94
2023-04-11T06:05:18.839Z,100922.63
2023-04-11T06:07:45.365Z,100917.16
2023-04-11T06:10:11.859Z,100935.69
2023-04-11T06:12:38.350Z,100930.41
2023-04-11T06:15:07.541Z,100932.63
2023-04-11T06:17:34.088Z,100939.03
2023-04-11T06:20:00.700Z,100939.88
2023-04-11T06:22:27.283Z,100951.03
2023-04-11T06:24:53.755Z,100942.78
2023-04-11T06:27:20.206Z,100948.78
2023-04-11T06:29:46.710Z,100948.09
2023-04-11T06:32:14.538Z,100961.06
2023-04-11T06:34:41.232Z,100946.66
2023-04-11T06:37:08.013Z,100958.22
2023-04-11T06:39:34.782Z,100953.91
2023-04-11T06:42:01.369Z,100965.34
2023-04-11T06:44:28.378Z,100963.66
2023-04-11T06:46:55.070Z,100965.84
2023-04-11T06:49:23.121Z,100968.22
2023-04-11T06:51:49.804Z,100966.84
2023-04-11T06:54:16.944Z,100963.44
2023-04-11T06:56:43.527Z,100973.63
2023-04-11T06:59:10.337Z,100966.78
2023-04-11T07:01:37.434Z,100970.97
2023-04-11T07:04:04.224Z,100978.19
2023-04-11T07:06:32.182Z,100985.44
2023-04-11T07:08:58.715Z,100987.53
2023-04-11T07:11:25.303Z,100986.53
2023-04-11T07:13:51.834Z,100985.41
2023-04-11T07:16:18.452Z,100984.81
2023-04-11T07:18:45.038Z,100993.75
2023-04-11T07:21:12.014Z,100998.31
2023-04-11T07:23:40.179Z,101005.00
2023-04-11T07:26:07.303Z,101003.56
2023-04-11T07:28:33.781Z,101002.28
2023-04-11T07:31:00.324Z,101011.19
2023-04-11T07:33:26.774Z,101000.56
2023-04-11T07:35:53.287Z,101004.97
2023-04-11T07:38:19.795Z,100996.28
2023-04-11T07:40:47.692Z,101014.44
2023-04-11T07:43:14.173Z,101012.47
2023-04-11T07:45:40.752Z,101007.72
2023-04-11T07:48:07.299Z,101013.88
2023-04-11T07:50:33.973Z,101019.94
2023-04-11T07:53:00.557Z,101011.53
2023-04-11T07:55:27.112Z,101031.72
2023-04-11T07:57:54.967Z,101024.44
2023-04-11T08:00:22.727Z,101033.22
2023-04-11T08:02:49.745Z,101036.16
2023-04-11T08:05:16.541Z,101041.03
2023-04-11T08:07:43.228Z,101044.81
2023-04-11T08:10:10.214Z,101042.72
2023-04-11T08:12:36.701Z,101050.47
2023-04-11T08:15:05.421Z,101052.22
2023-04-11T08:17:31.991Z,101046.56
2023-04-11T08:19:58.508Z,101047.88
2023-04-11T08:22:24.993Z,101044.47
2023-04-11T08:24:52.088Z,101058.50
2023-04-11T08:27:18.582Z,101069.56
2023-04-11T08:29:45.065Z,101058.88
2023-04-11T08:32:12.869Z,101068.75
2023-04-11T08:34:39.400Z,101062.81
2023-04-11T08:37:05.842Z,101064.19
2023-04-11T08:39:32.310Z,101066.91
2023-04-11T08:42:00.269Z,101054.34
2023-04-11T08:44:26.871Z,101067.25
2023-04-11T08:46:53.368Z,101062.78
2023-04-11T08:49:21.246Z,101067.25
2023-04-11T08:51:49.225Z,101068.31
2023-04-11T08:54:15.816Z,101078.81
2023-04-11T08:56:42.367Z,101081.22
2023-04-11T08:59:08.858Z,101075.56
2023-04-11T09:01:35.372Z,101073.25
2023-04-11T09:04:04.607Z,101082.53
2023-04-11T09:06:33.426Z,101067.59
2023-04-11T09:09:00.912Z,101083.09
2023-04-11T09:11:27.483Z,101079.38
2023-04-11T09:14:07.501Z,101066.56
2023-04-11T09:16:34.373Z,101074.13
2023-04-11T09:19:00.937Z,101077.38
2023-04-11T09:21:28.123Z,101078.66
2023-04-11T09:24:14.372Z,101078.59
2023-04-11T09:26:41.450Z,101075.56
2023-04-11T09:29:07.967Z,101070.84
2023-04-11T09:31:41.862Z,101077.44
2023-04-11T09:34:08.676Z,101079.97
2023-04-11T09:36:35.213Z,101077.53
2023-04-11T09:39:16.790Z,101080.81
2023-04-11T09:41:43.332Z,101088.22
2023-04-11T09:44:09.856Z,101073.91
2023-04-11T09:46:36.477Z,101084.88
2023-04-11T09:49:03.542Z,101086.94
2023-04-11T09:51:36.446Z,101083.00
2023-04-11T09:54:05.188Z,101099.13
2023-04-11T09:56:33.570Z,101084.03
2023-04-11T09:59:02.318Z,101077.25
2023-04-11T10:01:28.921Z,101081.41
2023-04-11T10:03:56.612Z,101084.78
2023-04-11T10:06:31.146Z,101081.59
2023-04-11T10:09:05.578Z,101089.28
2023-04-11T10:11:33.616Z,101079.97
2023-04-11T10:14:00.113Z,101084.81
2023-04-11T10:16:26.627Z,101082.50
2023-04-11T10:19:24.485Z,101096.50
2023-04-11T10:21:51.054Z,101085.81
2023-04-11T10:24:18.505Z,101077.16
2023-04-11T10:26:52.009Z,101076.84
2023-04-11T10:29:47.993Z,101095.69
2023-04-11T10:32:23.512Z,101085.81
2023-04-11T10:35:29.806Z,101070.66
2023-04-11T10:37:56.378Z,101070.81
2023-04-11T10:40:23.044Z,101088.63
2023-04-11T10:42:50.904Z,101071.00
2023-04-11T10:45:27.260Z,101076.66
2023-04-11T10:48:01.958Z,101074.50
2023-04-11T10:50:37.434Z,101071.16
2023-04-11T10:53:05.459Z,101072.47
2023-04-11T10:55:43.855Z,101076.63
2023-04-11T10:58:12.444Z,101064.28
2023-04-11T11:01:21.280Z,101072.13
2023-04-11T11:03:59.522Z,101073.81
2023-04-11T11:06:26.136Z,101074.16
2023-04-11T11:08:52.701Z,101071.31
2023-04-11T11:11:19.172Z,101073.47
2023-04-11T11:13:52.108Z,101082.81
2023-04-11T11:16:20.390Z,101080.13
2023-04-11T11:18:48.650Z,101079.63
2023-04-11T11:21:24.590Z,101076.31
2023-04-11T11:23:58.653Z,101084.78
2023-04-11T11:26:38.519Z,101089.63
2023-04-11T11:29:06.500Z,101087.16
2023-04-11T11:31:37.940Z,101082.09
2023-04-11T11:34:22.292Z,101088.78
2023-04-11T11:36:50.881Z,101084.31
2023-04-11T11:39:17.629Z,101084.41
2023-04-11T11:41:44.252Z,101071.69
2023-04-11T11:44:23.521Z,101075.50
2023-04-11T11:47:03.980Z,101090.94
2023-04-11T11:49:43.636Z,101092.56
2023-04-11T11:52:10.810Z,101094.88
2023-04-11T11:54:43.733Z,101092.84
2023-04-11T11:57:10.352Z,101093.84
2023-04-11T11:59:38.217Z,101099.13
2023-04-11T12:02:04.786Z,101095.13
2023-04-11T12:04:31.772Z,101097.38
2023-04-11T12:07:08.014Z,101096.94
2023-04-11T12:09:34.549Z,101103.78
2023-04-11T12:12:01.109Z,101099.63
2023-04-11T12:14:27.652Z,101098.84
2023-04-11T12:16:55.707Z,101101.34
2023-04-11T12:19:22.289Z,101089.84
2023-04-11T12:21:48.804Z,101092.81
2023-04-11T12:24:15.262Z,101097.16
2023-04-11T12:26:57.428Z,101091.47
2023-04-11T12:29:28.202Z,101098.47
2023-04-11T12:31:56.073Z,101099.09
2023-04-11T12:34:22.534Z,101092.69
2023-04-11T12:36:49.032Z,101092.94
2023-04-11T12:39:15.620Z,101088.06
2023-04-11T12:41:42.130Z,101091.94
2023-04-11T12:44:08.581Z,101091.06
2023-04-11T12:46:35.083Z,101094.91
2023-04-11T12:49:02.928Z,101089.97
2023-04-11T12:51:29.393Z,101090.41
2023-04-11T12:53:55.849Z,101087.72
2023-04-11T12:56:22.303Z,101101.94
2023-04-11T12:58:48.830Z,101090.41
2023-04-11T13:01:15.904Z,101091.16
2023-04-11T13:03:42.513Z,101077.09
2023-04-11T13:06:10.667Z,101090.47
2023-04-11T13:08:37.188Z,101079.41
2023-04-11T13:11:03.749Z,101095.47
2023-04-11T13:13:30.252Z,101085.94
2023-04-11T13:15:56.809Z,101089.56
2023-04-11T13:18:23.363Z,101088.88
2023-04-11T13:20:49.808Z,101100.69
2023-04-11T13:23:17.738Z,101103.16
2023-04-11T13:25:44.276Z,101104.63
2023-04-11T13:28:10.855Z,101102.09
2023-04-11T13:30:37.347Z,101102.28
2023-04-11T13:33:03.946Z,101101.97
2023-04-11T13:35:30.469Z,101102.69
2023-04-11T13:37:56.963Z,101095.72
2023-04-11T13:40:24.900Z,101092.41
2023-04-11T13:42:51.420Z,101091.41
2023-04-11T13:45:17.918Z,101087.09
2023-04-11T13:47:44.406Z,101089.09
2023-04-11T13:50:11.037Z,101084.72
2023-04-11T13:52:37.907Z,101086.66
2023-04-11T13:55:05.296Z,101094.16
2023-04-11T13:57:33.163Z,101084.00
2023-04-11T13:59:59.683Z,101082.38
2023-04-11T14:02:26.267Z,101078.66
2023-04-11T14:04:52.860Z,101067.81
2023-04-11T14:07:19.348Z,101076.72
2023-04-11T14:09:45.851Z,101068.22
2023-04-11T14:12:12.373Z,101073.53
2023-04-11T14:14:40.207Z,101073.69
2023-04-11T14:17:06.841Z,101058.09
2023-04-11T14:19:33.348Z,101067.97
2023-04-11T14:21:59.870Z,101055.59
2023-04-11T14:24:26.392Z,101062.03
2023-04-11T14:26:52.865Z,101053.91
2023-04-11T14:29:20.977Z,101068.22
2023-04-11T14:31:50.444Z,101050.81
2023-04-11T14:34:17.036Z,101054.13
2023-04-11T14:36:43.565Z,101046.56
2023-04-11T14:39:10.176Z,101049.41
2023-04-11T14:41:36.656Z,101032.63
2023-04-11T14:44:03.198Z,101032.94
2023-04-11T14:46:29.822Z,101038.69
2023-04-11T14:48:57.662Z,101032.69
2023-04-11T14:51:24.167Z,101032.47
2023-04-11T14:53:50.679Z,101031.56
2023-04-11T14:56:17.173Z,101035.25
2023-04-11T14:58:43.646Z,101028.94
2023-04-11T15:01:10.234Z,101033.97
2023-04-11T15:03:36.969Z,101028.69
2023-04-11T15:06:05.728Z,101022.56
2023-04-11T15:08:32.315Z,101023.94
2023-04-11T15:10:58.845Z,101015.72
2023-04-11T15:13:25.401Z,101015.44
2023-04-11T15:15:51.968Z,101010.06
2023-04-11T15:18:20.282Z,101005.06
2023-04-11T15:20:46.826Z,101007.25
2023-04-11T15:23:14.728Z,101002.09
2023-04-11T15:25:41.244Z,101005.41
2023-04-11T15:28:08.418Z,101011.34
2023-04-11T15:30:37.554Z,101001.03
2023-04-11T15:33:04.144Z,101001.19
2023-04-11T15:35:30.699Z,101000.75
2023-04-11T15:37:58.311Z,100998.28
2023-04-11T15:40:26.127Z,101001.41
2023-04-11T15:42:52.597Z,100998.44
2023-04-11T15:45:19.128Z,100994.28
2023-04-11T15:47:45.622Z,100990.28
2023-04-11T15:50:12.231Z,100995.47
2023-04-11T15:52:38.734Z,100994.00
2023-04-11T15:55:06.375Z,100981.81
2023-04-11T15:57:34.243Z,100976.44
2023-04-11T16:00:00.756Z,100976.25
2023-04-11T16:02:27.726Z,100979.03
2023-04-11T16:04:54.597Z,100978.19
2023-04-11T16:07:21.112Z,100973.31
2023-04-11T16:09:47.595Z,100968.13
2023-04-11T16:12:14.336Z,100971.28
2023-04-11T16:14:42.224Z,100957.88
2023-04-11T16:17:08.768Z,100949.47
2023-04-11T16:19:35.303Z,100950.41
2023-04-11T16:22:01.879Z,100955.41
2023-04-11T16:24:28.453Z,100949.38
2023-04-11T16:26:54.948Z,100943.19
2023-04-11T16:29:21.520Z,100938.09
2023-04-11T16:31:49.413Z,100936.69
2023-04-11T16:34:15.938Z,100938.97
2023-04-11T16:36:43.108Z,100940.56
2023-04-11T16:39:09.600Z,100943.28
2023-04-11T16:41:36.109Z,100947.09
2023-04-11T16:44:03.216Z,100946.84
2023-04-11T16:46:29.747Z,100946.28
2023-04-11T16:48:58.862Z,100941.47
2023-04-11T16:51:25.435Z,100936.81
2023-04-11T16:53:51.967Z,100936.41
2023-04-11T16:56:18.652Z,100935.41
2023-04-11T16:58:45.122Z,100933.91
2023-04-11T17:01:11.682Z,100929.94
2023-04-11T17:03:38.414Z,100927.09
2023-04-11T17:06:12.943Z,100924.59
2023-04-11T17:08:41.126Z,100924.25
2023-04-11T17:11:08.667Z,100918.72
2023-04-11T17:13:35.733Z,100913.53
2023-04-11T17:16:02.372Z,100909.06
2023-04-11T17:18:28.840Z,100910.91
2023-04-11T17:20:55.392Z,100903.44
2023-04-11T17:23:35.103Z,100896.63
2023-04-11T17:26:05.759Z,100890.13
2023-04-11T17:28:32.949Z,100893.28
2023-04-11T17:30:59.461Z,100886.63
2023-04-11T17:33:25.951Z,100891.13
2023-04-11T17:35:52.485Z,100890.66
2023-04-11T17:38:19.039Z,100887.31
2023-04-11T17:40:46.866Z,100887.81
2023-04-11T17:43:13.389Z,100887.50
2023-04-11T17:45:41.824Z,100878.81
2023-04-11T17:48:08.438Z,100885.16
2023-04-11T17:50:34.916Z,100883.16
2023-04-11T17:53:01.395Z,100878.53
2023-04-11T17:55:27.876Z,100876.72
2023-04-11T17:57:55.801Z,100876.22
2023-04-11T18:00:22.446Z,100865.41
2023-04-11T18:02:50.827Z,100866.06
2023-04-11T18:05:23.830Z,100868.88
2023-04-11T18:07:53.230Z,100865.06
2023-04-11T18:10:20.120Z,100858.25
2023-04-11T18:12:47.975Z,100862.59
2023-04-11T18:15:15.809Z,100866.72
2023-04-11T18:17:42.439Z,100867.56
2023-04-11T18:20:09.963Z,100859.91
2023-04-11T18:22:38.906Z,100856.56
2023-04-11T18:25:06.568Z,100860.06
2023-04-11T18:27:34.940Z,100855.25
2023-04-11T18:30:03.221Z,100858.72
2023-04-11T18:32:36.429Z,100848.44
2023-04-11T18:35:07.225Z,100850.09
2023-04-11T18:37:33.919Z,100842.09
2023-04-11T18:40:00.787Z,100836.78
2023-04-11T18:42:27.287Z,100834.44
2023-04-11T18:44:54.284Z,100839.94
2023-04-11T18:47:21.115Z,100834.75
2023-04-11T18:49:49.027Z,100839.94
2023-04-11T18:52:15.616Z,100835.75
2023-04-11T18:54:42.179Z,100832.63
2023-04-11T18:57:10.210Z,100840.59
2023-04-11T18:59:40.877Z,100846.59
2023-04-11T19:02:09.299Z,100845.59
2023-04-11T19:04:36.431Z,100848.59
2023-04-11T19:07:04.422Z,100847.75
2023-04-11T19:09:30.924Z,100848.59
2023-04-11T19:11:58.767Z,100845.41
2023-04-11T19:14:25.340Z,100845.94
2023-04-11T19:16:51.884Z,100857.41
2023-04-11T19:19:18.403Z,100851.56
2023-04-11T19:21:46.013Z,100836.78
2023-04-11T19:24:13.848Z,100847.25
2023-04-11T19:26:40.367Z,100847.56
2023-04-11T19:29:06.997Z,100835.91
2023-04-11T19:31:33.788Z,100832.75
2023-04-11T19:34:00.299Z,100831.91
2023-04-11T19:36:26.870Z,100832.25
2023-04-11T19:38:53.327Z,100828.25
2023-04-11T19:41:21.166Z,100827.41
2023-04-11T19:43:48.513Z,100820.22
2023-04-11T19:46:15.896Z,100814.06
2023-04-11T19:48:43.309Z,100807.41
2023-04-11T19:51:11.264Z,100805.56
2023-04-11T19:53:38.759Z,100790.09
2023-04-11T19:56:06.860Z,100787.94
2023-04-11T19:58:34.749Z,100784.06
2023-04-11T20:01:01.397Z,100781.09
2023-04-11T20:03:28.117Z,100775.25
2023-04-11T20:05:55.027Z,100765.28
2023-04-11T20:08:21.580Z,100758.59
2023-04-11T20:10:48.183Z,100749.13
2023-04-11T20:13:15.932Z,100747.63
2023-04-11T20:15:43.789Z,100747.13
2023-04-11T20:18:10.661Z,100740.97
2023-04-11T20:20:37.248Z,100739.78
2023-04-11T20:23:04.036Z,100731.97
2023-04-11T20:25:30.945Z,100718.50
2023-04-11T20:27:57.906Z,100722.16
2023-04-11T20:30:24.573Z,100717.69
2023-04-11T20:32:53.255Z,100710.38
2023-04-11T20:35:20.203Z,100704.22
2023-04-11T20:37:46.740Z,100692.44
2023-04-11T20:40:13.386Z,100686.63
2023-04-11T20:42:40.235Z,100683.97
2023-04-11T20:45:08.519Z,100673.31
2023-04-11T20:47:35.241Z,100666.03
2023-04-11T20:50:03.712Z,100656.53
2023-04-11T20:52:30.284Z,100659.19
2023-04-11T20:54:56.828Z,100648.25
2023-04-11T20:57:23.400Z,100651.22
2023-04-11T20:59:49.905Z,100639.06
2023-04-11T21:02:16.563Z,100630.44
2023-04-11T21:04:43.254Z,100631.78
2023-04-11T21:07:11.189Z,100629.44
2023-04-11T21:09:37.715Z,100624.44
2023-04-11T21:12:04.568Z,100615.00
2023-04-11T21:14:31.055Z,100614.00
2023-04-11T21:16:57.597Z,100612.34
2023-04-11T21:19:24.138Z,100606.66
2023-04-11T21:21:50.664Z,100605.00
2023-04-11T21:24:18.537Z,100604.66
2023-04-11T21:26:45.032Z,100603.84
2023-04-11T21:29:12.079Z,100591.53
2023-04-11T21:31:38.609Z,100594.34
2023-04-11T21:34:05.219Z,100595.19
2023-04-11T21:36:31.764Z,100583.06
2023-04-11T21:38:58.263Z,100578.75
2023-04-11T21:41:26.088Z,100586.72
2023-04-11T21:43:52.591Z,100576.09
2023-04-11T21:46:19.157Z,100574.78
2023-04-11T21:48:45.749Z,100578.41
2023-04-11T21:51:15.946Z,100586.06
2023-04-11T21:53:42.516Z,100577.13
2023-04-11T21:56:09.653Z,100572.44
2023-04-11T21:58:37.469Z,100578.28
2023-04-11T22:01:04.284Z,100568.47
2023-04-11T22:03:31.079Z,100573.78
2023-04-11T22:05:58.263Z,100572.78
2023-04-11T22:08:24.793Z,100571.81
2023-04-11T22:10:51.344Z,100568.00
2023-04-11T22:13:19.556Z,100567.31
2023-04-11T22:15:48.084Z,100563.16
2023-04-11T22:18:14.696Z,100554.19
2023-04-11T22:20:43.396Z,100550.53
2023-04-11T22:23:10.009Z,100549.88
2023-04-11T22:25:37.175Z,100537.75
2023-04-11T22:28:03.683Z,100536.59
2023-04-11T22:30:30.342Z,100534.94
2023-04-11T22:32:58.194Z,100528.78
2023-04-11T22:35:24.750Z,100533.44
2023-04-11T22:37:51.827Z,100516.16
2023-04-11T22:40:18.370Z,100516.84
2023-04-11T22:42:44.869Z,100524.81
2023-04-11T22:45:11.424Z,100509.19
2023-04-11T22:47:38.143Z,100499.41
2023-04-11T22:50:06.997Z,100503.03
2023-04-11T22:52:33.493Z,100497.06
2023-04-11T22:54:59.993Z,100491.06
2023-04-11T22:57:26.567Z,100488.94
2023-04-11T22:59:53.072Z,100489.56
2023-04-11T23:02:19.593Z,100473.16
2023-04-11T23:04:46.197Z,100477.13
2023-04-11T23:07:14.052Z,100472.50
2023-04-11T23:09:40.551Z,100468.84
2023-04-11T23:12:07.253Z,100457.06
2023-04-11T23:14:33.908Z,100443.94
2023-04-11T23:17:00.585Z,100437.94
2023-04-11T23:19:27.251Z,100444.63
2023-04-11T23:21:53.875Z,100430.47
2023-04-11T23:24:21.666Z,100424.00
2023-04-11T23:26:48.142Z,100425.00
2023-04-11T23:29:14.609Z,100425.66
2023-04-11T23:31:41.113Z,100430.81
2023-04-11T23:34:07.642Z,100431.78
2023-04-11T23:36:34.175Z,100411.22
2023-04-11T23:39:00.714Z,100412.69
2023-04-11T23:41:28.601Z,100407.50
2023-04-11T23:43:55.193Z,100394.72
2023-04-11T23:46:21.848Z,100387.28
2023-04-11T23:48:48.496Z,100393.72
2023-04-11T23:51:15.433Z,100376.16
2023-04-11T23:53:42.274Z,100377.97
2023-04-11T23:56:09.114Z,100378.16
2023-04-11T23:58:37.732Z,100361.22
